createdAt,value
2018-07-19T00:01:20.218Z,17.48
2018-07-19T00:03:50.845Z,17.38
2018-07-19T00:06:20.255Z,17.45
2018-07-19T00:08:49.903Z,17.36
2018-07-19T00:11:20.954Z,17.06
2018-07-19T00:13:50.729Z,17.30
2018-07-19T00:16:20.399Z,17.20
2018-07-19T00:18:50.491Z,17.03
2018-07-19T00:21:20.687Z,16.67
2018-07-19T00:23:50.294Z,16.06
2018-07-19T00:26:20.211Z,16.70
2018-07-19T00:28:49.716Z,16.70
2018-07-19T00:31:18.724Z,16.63
2018-07-19T00:33:47.259Z,16.50
2018-07-19T00:36:16.231Z,16.85
2018-07-19T00:38:44.791Z,16.95
2018-07-19T00:41:15.639Z,16.93
2018-07-19T00:43:44.281Z,16.89
2018-07-19T00:46:13.217Z,16.66
2018-07-19T00:48:41.784Z,16.93
2018-07-19T00:51:10.696Z,17.03
2018-07-19T00:53:39.252Z,16.88
2018-07-19T00:56:07.873Z,16.84
2018-07-19T00:58:38.655Z,16.90
2018-07-19T01:01:07.477Z,16.70
2018-07-19T01:03:36.068Z,16.55
2018-07-19T01:06:06.419Z,16.77
2018-07-19T01:08:35.051Z,16.80
2018-07-19T01:11:03.637Z,16.96
2018-07-19T01:13:32.177Z,17.04
2018-07-19T01:16:02.154Z,16.88
2018-07-19T01:18:30.774Z,16.57
2018-07-19T01:20:59.366Z,16.42
2018-07-19T01:23:27.928Z,16.49
2018-07-19T01:25:56.551Z,15.99
2018-07-19T01:28:25.212Z,15.67
2018-07-19T01:30:53.812Z,15.96
2018-07-19T01:33:22.520Z,16.13
2018-07-19T01:35:51.681Z,16.01
2018-07-19T01:38:20.553Z,16.20
2018-07-19T01:40:50.681Z,16.29
2018-07-19T01:43:19.379Z,16.25
2018-07-19T01:45:47.972Z,16.24
2018-07-19T01:48:16.493Z,16.04
2018-07-19T01:50:45.056Z,15.48
2018-07-19T01:53:13.589Z,15.78
2018-07-19T01:55:42.156Z,15.84
2018-07-19T01:58:10.701Z,15.87
2018-07-19T02:00:39.260Z,16.00
2018-07-19T02:03:07.813Z,16.01
2018-07-19T02:05:36.341Z,16.10
2018-07-19T02:08:04.925Z,16.22
2018-07-19T02:10:33.446Z,16.13
2018-07-19T02:13:02.032Z,16.05
2018-07-19T02:15:30.565Z,15.91
2018-07-19T02:17:59.136Z,15.94
2018-07-19T02:20:27.652Z,16.07
2018-07-19T02:22:56.228Z,15.92
2018-07-19T02:25:24.759Z,15.67
2018-07-19T02:27:53.579Z,15.79
2018-07-19T02:30:22.092Z,15.66
2018-07-19T02:32:51.640Z,15.80
2018-07-19T02:35:20.168Z,15.35
2018-07-19T02:37:48.769Z,15.61
2018-07-19T02:40:17.320Z,15.77
2018-07-19T02:42:45.878Z,15.53
2018-07-19T02:45:14.402Z,15.50
2018-07-19T02:47:42.968Z,15.64
2018-07-19T02:50:11.512Z,15.58
2018-07-19T02:52:40.125Z,15.49
2018-07-19T02:55:08.712Z,15.48
2018-07-19T02:57:37.353Z,15.39
2018-07-19T03:00:06.028Z,15.26
2018-07-19T03:02:34.616Z,15.15
2018-07-19T03:05:03.176Z,14.98
2018-07-19T03:07:31.748Z,15.23
2018-07-19T03:10:00.272Z,15.34
2018-07-19T03:12:28.824Z,15.13
2018-07-19T03:14:57.358Z,15.35
2018-07-19T03:17:25.925Z,15.34
2018-07-19T03:19:54.455Z,15.36
2018-07-19T03:22:23.412Z,15.20
2018-07-19T03:24:51.940Z,15.30
2018-07-19T03:27:20.495Z,15.26
2018-07-19T03:29:48.999Z,15.35
2018-07-19T03:32:17.568Z,15.21
2018-07-19T03:34:46.088Z,15.16
2018-07-19T03:37:14.689Z,15.09
2018-07-19T03:39:43.423Z,14.86
2018-07-19T03:42:11.984Z,14.90
2018-07-19T03:44:40.516Z,14.88
2018-07-19T03:47:09.073Z,14.79
2018-07-19T03:49:37.692Z,14.59
2018-07-19T03:52:06.307Z,14.55
2018-07-19T03:54:34.841Z,14.93
2018-07-19T03:57:03.425Z,14.86
2018-07-19T03:59:31.990Z,14.65
2018-07-19T04:02:00.877Z,14.77
2018-07-19T04:04:29.423Z,14.63
2018-07-19T04:06:57.960Z,14.82
2018-07-19T04:09:26.574Z,14.75
2018-07-19T04:11:55.100Z,14.86
2018-07-19T04:14:24.172Z,14.72
2018-07-19T04:16:52.688Z,14.67
2018-07-19T04:19:22.090Z,14.90
2018-07-19T04:21:50.642Z,14.86
2018-07-19T04:24:19.225Z,14.93
2018-07-19T04:26:47.744Z,15.02
2018-07-19T04:29:16.316Z,14.84
2018-07-19T04:31:44.847Z,14.89
2018-07-19T04:34:13.424Z,14.88
2018-07-19T04:36:41.977Z,14.98
2018-07-19T04:39:10.912Z,15.03
2018-07-19T04:41:39.462Z,14.97
2018-07-19T04:44:08.024Z,15.15
2018-07-19T04:46:36.648Z,15.28
2018-07-19T04:49:05.283Z,15.29
2018-07-19T04:51:33.812Z,15.23
2018-07-19T04:54:02.373Z,15.33
2018-07-19T04:56:30.889Z,15.39
2018-07-19T04:58:59.455Z,15.55
2018-07-19T05:01:27.984Z,15.52
2018-07-19T05:03:56.552Z,15.62
2018-07-19T05:06:25.095Z,15.70
2018-07-19T05:08:54.376Z,15.82
2018-07-19T05:11:22.907Z,15.98
2018-07-19T05:13:51.479Z,16.08
2018-07-19T05:16:20.030Z,15.97
2018-07-19T05:18:48.591Z,16.05
2018-07-19T05:21:17.126Z,16.24
2018-07-19T05:23:45.685Z,16.19
2018-07-19T05:26:14.326Z,16.29
2018-07-19T05:28:42.936Z,16.48
2018-07-19T05:31:11.460Z,16.61
2018-07-19T05:33:40.024Z,16.61
2018-07-19T05:36:09.000Z,16.69
2018-07-19T05:38:37.580Z,16.80
2018-07-19T05:41:06.388Z,16.94
2018-07-19T05:43:34.940Z,17.02
2018-07-19T05:46:03.465Z,17.18
2018-07-19T05:48:32.076Z,17.14
2018-07-19T05:51:00.583Z,17.24
2018-07-19T05:53:29.107Z,17.44
2018-07-19T05:55:57.663Z,17.51
2018-07-19T05:58:26.200Z,17.60
2018-07-19T06:00:54.761Z,17.71
2018-07-19T06:03:23.312Z,17.76
2018-07-19T06:05:51.864Z,17.83
2018-07-19T06:08:20.389Z,18.03
2018-07-19T06:10:48.945Z,18.08
2018-07-19T06:13:17.566Z,18.25
2018-07-19T06:15:46.188Z,18.31
2018-07-19T06:18:14.720Z,18.40
2018-07-19T06:20:43.299Z,18.44
2018-07-19T06:23:11.831Z,18.58
2018-07-19T06:25:40.397Z,18.59
2018-07-19T06:28:08.968Z,18.74
2018-07-19T06:30:37.552Z,18.88
2018-07-19T06:33:06.392Z,18.94
2018-07-19T06:35:34.972Z,19.07
2018-07-19T06:38:03.554Z,19.18
2018-07-19T06:40:32.129Z,19.28
2018-07-19T06:43:00.719Z,19.36
2018-07-19T06:45:29.304Z,19.50
2018-07-19T06:47:57.865Z,19.60
2018-07-19T06:50:26.425Z,19.62
2018-07-19T06:52:54.955Z,19.74
2018-07-19T06:55:23.509Z,19.92
2018-07-19T06:57:52.065Z,20.07
2018-07-19T07:00:20.656Z,20.22
2018-07-19T07:02:49.200Z,20.39
2018-07-19T07:05:17.769Z,20.42
2018-07-19T07:07:46.317Z,20.49
2018-07-19T07:10:14.877Z,20.67
2018-07-19T07:12:50.057Z,20.71
2018-07-19T07:15:18.624Z,20.92
2018-07-19T07:17:47.149Z,20.99
2018-07-19T07:20:15.720Z,21.09
2018-07-19T07:22:44.252Z,21.26
2018-07-19T07:25:12.828Z,21.26
2018-07-19T07:27:41.449Z,21.37
2018-07-19T07:30:10.025Z,21.52
2018-07-19T07:32:38.777Z,21.51
2018-07-19T07:35:07.444Z,21.56
2018-07-19T07:37:36.019Z,21.66
2018-07-19T07:40:05.013Z,21.74
2018-07-19T07:42:33.589Z,21.84
2018-07-19T07:45:02.153Z,21.89
2018-07-19T07:47:30.732Z,21.91
2018-07-19T07:49:59.247Z,21.96
2018-07-19T07:52:27.849Z,22.04
2018-07-19T07:54:56.416Z,22.09
2018-07-19T07:57:25.008Z,22.12
2018-07-19T07:59:53.516Z,22.34
2018-07-19T08:02:22.119Z,22.46
2018-07-19T08:04:50.660Z,22.59
2018-07-19T08:07:19.214Z,22.72
2018-07-19T08:09:47.756Z,22.74
2018-07-19T08:12:16.785Z,22.84
2018-07-19T08:14:45.455Z,22.90
2018-07-19T08:17:14.049Z,22.94
2018-07-19T08:19:42.581Z,23.11
2018-07-19T08:22:11.160Z,23.01
2018-07-19T08:24:39.784Z,23.06
2018-07-19T08:27:08.584Z,23.14
2018-07-19T08:29:37.193Z,23.13
2018-07-19T08:32:05.843Z,23.06
2018-07-19T08:34:34.379Z,23.22
2018-07-19T08:37:03.028Z,23.32
2018-07-19T08:39:31.565Z,23.57
2018-07-19T08:42:00.151Z,23.66
2018-07-19T08:44:28.719Z,23.65
2018-07-19T08:47:00.337Z,23.64
2018-07-19T08:49:28.985Z,23.52
2018-07-19T08:51:58.356Z,23.64
2018-07-19T08:54:30.146Z,23.82
2018-07-19T08:57:04.163Z,23.78
2018-07-19T08:59:41.045Z,24.03
2018-07-19T09:02:09.610Z,24.11
2018-07-19T09:04:38.169Z,24.05
2018-07-19T09:07:06.857Z,24.02
2018-07-19T09:09:35.389Z,24.09
2018-07-19T09:12:09.357Z,24.01
2018-07-19T09:14:45.432Z,24.25
2018-07-19T09:17:19.135Z,24.40
2018-07-19T09:19:54.413Z,24.70
2018-07-19T09:22:28.836Z,24.58
2018-07-19T09:25:05.817Z,24.48
2018-07-19T09:27:40.260Z,24.50
2018-07-19T09:30:18.943Z,24.55
2018-07-19T09:32:53.627Z,24.76
2018-07-19T09:35:28.758Z,24.75
2018-07-19T09:38:06.457Z,24.87
2018-07-19T09:40:43.382Z,25.00
2018-07-19T09:43:19.484Z,25.11
2018-07-19T09:45:55.768Z,25.33
2018-07-19T09:48:38.487Z,25.46
2018-07-19T09:51:17.523Z,25.15
2018-07-19T09:53:53.465Z,25.36
2018-07-19T09:59:10.425Z,25.86
2018-07-19T10:01:44.471Z,25.47
2018-07-19T10:04:24.269Z,25.78
2018-07-19T10:07:00.204Z,25.94
2018-07-19T10:09:41.121Z,26.16
2018-07-19T10:12:17.776Z,26.08
2018-07-19T10:14:50.300Z,25.95
2018-07-19T10:17:21.265Z,26.37
2018-07-19T10:19:53.901Z,26.39
2018-07-19T10:22:27.598Z,26.29
2018-07-19T10:24:56.133Z,26.45
2018-07-19T10:27:24.703Z,26.78
2018-07-19T10:29:53.240Z,26.80
2018-07-19T10:32:24.035Z,26.78
2018-07-19T10:34:52.553Z,27.02
2018-07-19T10:37:21.116Z,27.25
2018-07-19T10:39:49.678Z,27.32
2018-07-19T10:42:18.374Z,27.35
2018-07-19T10:44:46.953Z,27.47
2018-07-19T10:47:15.481Z,27.28
2018-07-19T10:49:44.050Z,27.48
2018-07-19T10:52:12.569Z,27.61
2018-07-19T10:54:41.580Z,27.63
2018-07-19T10:57:10.246Z,27.63
2018-07-19T10:59:38.801Z,27.82
2018-07-19T11:02:07.370Z,27.53
2018-07-19T11:04:35.916Z,27.60
2018-07-19T11:07:04.996Z,27.30
2018-07-19T11:09:33.836Z,27.07
2018-07-19T11:12:04.187Z,26.97
2018-07-19T11:14:32.800Z,27.07
2018-07-19T11:17:02.105Z,27.11
2018-07-19T11:19:30.939Z,27.31
2018-07-19T11:22:00.024Z,27.45
2018-07-19T11:24:29.600Z,27.67
2018-07-19T11:27:00.417Z,27.92
2018-07-19T11:29:28.969Z,27.97
2018-07-19T11:31:57.486Z,27.54
2018-07-19T11:34:26.026Z,27.59
2018-07-19T11:36:54.591Z,27.62
2018-07-19T11:39:23.138Z,27.94
2018-07-19T11:41:51.666Z,27.57
2018-07-19T11:44:20.228Z,27.35
2018-07-19T11:46:48.754Z,27.61
2018-07-19T11:49:17.397Z,28.09
2018-07-19T11:51:45.909Z,28.10
2018-07-19T11:54:14.475Z,28.16
2018-07-19T11:56:42.987Z,28.00
2018-07-19T11:59:11.549Z,28.34
2018-07-19T12:01:41.659Z,28.28
2018-07-19T12:04:10.280Z,28.33
2018-07-19T12:06:38.884Z,28.39
2018-07-19T12:09:10.181Z,28.71
2018-07-19T12:11:38.748Z,28.68
2018-07-19T12:14:07.395Z,28.36
2018-07-19T12:16:35.906Z,28.45
2018-07-19T12:19:04.509Z,28.58
2018-07-19T12:21:33.020Z,28.88
2018-07-19T12:24:01.581Z,28.87
2018-07-19T12:26:31.558Z,28.16
2018-07-19T12:29:00.112Z,28.16
2018-07-19T12:31:29.080Z,28.07
2018-07-19T12:33:57.692Z,28.71
2018-07-19T12:36:26.266Z,28.85
2018-07-19T12:38:54.789Z,28.78
2018-07-19T12:41:23.354Z,29.28
2018-07-19T12:43:51.888Z,29.67
2018-07-19T12:46:20.754Z,29.83
2018-07-19T12:48:49.312Z,29.72
2018-07-19T12:51:17.930Z,29.43
2018-07-19T12:53:46.446Z,29.13
2018-07-19T12:56:15.008Z,29.33
2018-07-19T12:58:43.524Z,29.53
2018-07-19T13:01:12.069Z,29.73
2018-07-19T13:03:40.592Z,29.93
2018-07-19T13:06:09.869Z,30.07
2018-07-19T13:08:39.778Z,29.78
2018-07-19T13:11:09.407Z,29.41
2018-07-19T13:13:38.877Z,29.35
2018-07-19T13:16:07.601Z,28.62
2018-07-19T13:18:37.595Z,29.05
2018-07-19T13:21:06.177Z,28.63
2018-07-19T13:23:34.709Z,28.28
2018-07-19T13:26:03.268Z,28.64
2018-07-19T13:28:33.225Z,28.28
2018-07-19T13:31:01.939Z,28.12
2018-07-19T13:33:30.425Z,28.43
2018-07-19T13:36:00.046Z,28.52
2018-07-19T13:38:28.607Z,28.31
2018-07-19T13:40:57.172Z,28.71
2018-07-19T13:43:25.680Z,28.84
2018-07-19T13:45:54.227Z,28.86
2018-07-19T13:48:24.397Z,28.54
2018-07-19T13:50:52.985Z,28.43
2018-07-19T13:53:34.851Z,28.52
2018-07-19T13:56:06.442Z,28.41
2018-07-19T13:58:37.309Z,28.62
2018-07-19T14:01:06.077Z,28.37
2018-07-19T14:03:36.631Z,28.90
2018-07-19T14:06:06.064Z,28.97
2018-07-19T14:08:36.113Z,29.31
2018-07-19T14:11:06.474Z,29.44
2018-07-19T14:13:36.431Z,29.54
2018-07-19T14:16:06.750Z,29.62
2018-07-19T14:18:35.264Z,29.73
2018-07-19T14:21:03.837Z,29.38
2018-07-19T14:23:32.375Z,29.45
2018-07-19T14:26:01.456Z,29.32
2018-07-19T14:28:30.156Z,29.56
2018-07-19T14:30:58.961Z,29.66
2018-07-19T14:33:28.197Z,29.73
2018-07-19T14:36:03.519Z,29.91
2018-07-19T14:38:35.176Z,30.17
2018-07-19T14:41:10.230Z,30.04
2018-07-19T14:43:46.554Z,30.17
2018-07-19T14:46:22.137Z,30.14
2018-07-19T14:48:56.636Z,29.77
2018-07-19T14:51:31.418Z,29.93
2018-07-19T14:54:05.199Z,30.17
2018-07-19T14:56:39.777Z,29.96
2018-07-19T14:59:19.209Z,30.17
2018-07-19T15:01:55.401Z,30.56
2018-07-19T15:04:30.560Z,30.76
2018-07-19T15:07:04.249Z,30.64
2018-07-19T15:09:39.747Z,29.99
2018-07-19T15:12:13.028Z,30.28
2018-07-19T15:14:46.385Z,31.00
2018-07-19T15:17:22.720Z,30.42
2018-07-19T15:19:58.258Z,30.21
2018-07-19T15:22:29.558Z,30.16
2018-07-19T15:25:03.150Z,29.93
2018-07-19T15:27:38.083Z,29.99
2018-07-19T15:30:11.047Z,29.91
2018-07-19T15:32:45.735Z,30.06
2018-07-19T15:35:19.384Z,29.81
2018-07-19T15:37:55.232Z,29.69
2018-07-19T15:40:29.221Z,29.66
2018-07-19T15:43:02.276Z,29.73
2018-07-19T15:45:31.465Z,30.12
2018-07-19T15:48:00.030Z,30.45
2018-07-19T15:50:30.062Z,30.82
2018-07-19T15:52:58.685Z,30.99
2018-07-19T15:55:28.276Z,31.03
2018-07-19T15:57:56.888Z,30.83
2018-07-19T16:00:25.433Z,30.35
2018-07-19T16:02:53.977Z,30.24
2018-07-19T16:05:22.807Z,30.39
2018-07-19T16:07:52.739Z,30.57
2018-07-19T16:10:21.835Z,30.46
2018-07-19T16:12:52.100Z,30.68
2018-07-19T16:15:20.645Z,30.90
2018-07-19T16:17:49.265Z,30.95
2018-07-19T16:20:18.721Z,30.78
2018-07-19T16:22:47.332Z,31.15
2018-07-19T16:25:16.937Z,30.67
2018-07-19T16:27:45.588Z,30.93
2018-07-19T16:30:14.099Z,31.47
2018-07-19T16:32:43.672Z,31.27
2018-07-19T16:35:12.580Z,31.21
2018-07-19T16:37:41.167Z,31.68
2018-07-19T16:40:09.813Z,32.53
2018-07-19T16:42:39.026Z,32.77
2018-07-19T16:45:07.612Z,32.34
2018-07-19T16:47:37.551Z,31.97
2018-07-19T16:50:10.049Z,32.09
2018-07-19T16:52:38.683Z,32.46
2018-07-19T16:55:07.888Z,31.50
2018-07-19T16:57:36.440Z,32.50
2018-07-19T17:00:05.665Z,35.82
2018-07-19T17:02:34.220Z,38.51
2018-07-19T17:05:03.326Z,37.54
2018-07-19T17:07:32.112Z,38.17
2018-07-19T17:10:02.153Z,36.61
2018-07-19T17:12:31.072Z,34.94
2018-07-19T17:14:59.755Z,33.29
2018-07-19T17:17:28.297Z,36.57
2018-07-19T17:19:56.951Z,36.39
2018-07-19T17:22:25.521Z,33.64
2018-07-19T17:24:54.060Z,34.01
2018-07-19T17:27:25.396Z,36.07
2018-07-19T17:29:54.693Z,33.83
2018-07-19T17:32:23.973Z,33.57
2018-07-19T17:34:53.480Z,32.86
2018-07-19T17:37:22.705Z,32.30
2018-07-19T17:39:52.145Z,32.18
2018-07-19T17:42:23.663Z,34.36
2018-07-19T17:44:53.753Z,35.54
2018-07-19T17:47:22.941Z,36.54
2018-07-19T17:49:52.308Z,34.19
2018-07-19T17:52:20.890Z,33.96
2018-07-19T17:54:49.783Z,34.07
2018-07-19T17:57:23.332Z,36.18
2018-07-19T17:59:56.622Z,35.98
2018-07-19T18:02:29.822Z,35.12
2018-07-19T18:05:02.619Z,35.81
2018-07-19T18:07:35.879Z,35.68
2018-07-19T18:10:09.432Z,36.43
2018-07-19T18:12:43.013Z,35.20
2018-07-19T18:15:16.016Z,32.32
2018-07-19T18:17:50.619Z,31.58
2018-07-19T18:20:23.786Z,30.63
2018-07-19T18:22:56.821Z,30.91
2018-07-19T18:25:28.733Z,30.69
2018-07-19T18:28:02.691Z,29.33
2018-07-19T18:30:36.288Z,29.20
2018-07-19T18:33:05.354Z,28.55
2018-07-19T18:35:34.072Z,27.39
2018-07-19T18:38:03.116Z,28.07
2018-07-19T18:40:31.994Z,29.22
2018-07-19T18:43:00.968Z,29.00
2018-07-19T18:45:29.593Z,28.27
2018-07-19T18:47:58.553Z,27.70
2018-07-19T18:50:27.260Z,27.55
2018-07-19T18:52:55.894Z,27.72
2018-07-19T18:55:24.631Z,27.62
2018-07-19T18:57:53.699Z,27.34
2018-07-19T19:00:22.623Z,27.10
2018-07-19T19:02:51.368Z,26.85
2018-07-19T19:05:20.032Z,26.34
2018-07-19T19:07:48.684Z,26.05
2018-07-19T19:10:17.278Z,25.64
2018-07-19T19:12:46.160Z,25.93
2018-07-19T19:15:14.920Z,25.92
2018-07-19T19:17:43.432Z,25.59
2018-07-19T19:20:12.269Z,25.37
2018-07-19T19:22:41.337Z,25.02
2018-07-19T19:25:09.937Z,25.26
2018-07-19T19:27:38.609Z,24.93
2018-07-19T19:30:07.776Z,24.69
2018-07-19T19:32:36.565Z,24.33
2018-07-19T19:35:05.258Z,24.26
2018-07-19T19:37:34.437Z,24.02
2018-07-19T19:40:03.579Z,23.87
2018-07-19T19:42:32.761Z,23.86
2018-07-19T19:45:01.623Z,24.02
2018-07-19T19:47:30.232Z,23.89
2018-07-19T19:49:58.789Z,23.74
2018-07-19T19:52:27.353Z,23.39
2018-07-19T19:54:55.885Z,23.08
2018-07-19T19:57:24.900Z,23.24
2018-07-19T19:59:53.710Z,23.08
2018-07-19T20:02:22.522Z,23.05
2018-07-19T20:04:57.660Z,22.86
2018-07-19T20:07:30.274Z,22.68
2018-07-19T20:10:03.730Z,22.69
2018-07-19T20:12:37.241Z,22.56
2018-07-19T20:15:06.070Z,22.55
2018-07-19T20:17:34.616Z,22.61
2018-07-19T20:22:30.053Z,22.67
2018-07-19T20:24:58.653Z,22.35
2018-07-19T20:27:33.444Z,21.73
2018-07-19T20:30:07.023Z,21.76
2018-07-19T20:32:43.759Z,21.59
2018-07-19T20:35:17.941Z,21.81
2018-07-19T20:37:53.675Z,21.61
2018-07-19T20:40:26.981Z,21.59
2018-07-19T20:43:01.061Z,21.24
2018-07-19T20:45:36.639Z,21.23
2018-07-19T20:48:11.410Z,21.43
2018-07-19T20:50:48.925Z,21.57
2018-07-19T20:53:22.949Z,21.59
2018-07-19T20:55:57.887Z,21.65
2018-07-19T20:58:30.376Z,21.43
2018-07-19T21:01:02.305Z,21.33
2018-07-19T21:03:35.122Z,21.06
2018-07-19T21:06:07.766Z,21.03
2018-07-19T21:08:40.485Z,21.13
2018-07-19T21:11:14.253Z,21.24
2018-07-19T21:13:47.017Z,20.96
2018-07-19T21:16:21.439Z,20.87
2018-07-19T21:18:54.042Z,20.96
2018-07-19T21:21:26.564Z,20.96
2018-07-19T21:24:01.654Z,20.91
2018-07-19T21:26:35.773Z,20.64
2018-07-19T21:29:09.604Z,20.76
2018-07-19T21:31:43.087Z,20.72
2018-07-19T21:34:16.670Z,20.75
2018-07-19T21:36:51.592Z,20.65
2018-07-19T21:39:25.068Z,20.58
2018-07-19T21:41:59.617Z,20.46
2018-07-19T21:44:33.382Z,20.27
2018-07-19T21:47:06.114Z,20.32
2018-07-19T21:49:38.824Z,20.00
2018-07-19T21:52:12.816Z,20.08
2018-07-19T21:54:45.904Z,20.01
2018-07-19T21:57:21.027Z,19.65
2018-07-19T21:59:53.549Z,19.40
2018-07-19T22:02:23.428Z,19.51
2018-07-19T22:04:52.500Z,19.53
2018-07-19T22:07:21.538Z,19.39
2018-07-19T22:09:50.068Z,19.40
2018-07-19T22:12:20.239Z,19.25
2018-07-19T22:14:48.763Z,19.03
2018-07-19T22:17:17.314Z,19.29
2018-07-19T22:19:45.837Z,19.39
2018-07-19T22:22:14.416Z,19.25
2018-07-19T22:24:48.167Z,19.35
2018-07-19T22:27:18.205Z,19.32
2018-07-19T22:29:48.049Z,19.09
2018-07-19T22:32:19.849Z,19.05
2018-07-19T22:34:50.459Z,19.24
2018-07-19T22:37:21.166Z,19.25
2018-07-19T22:39:50.910Z,19.35
2018-07-19T22:42:20.890Z,18.92
2018-07-19T22:44:51.208Z,18.98
2018-07-19T22:47:21.101Z,18.96
2018-07-19T22:49:51.152Z,19.10
2018-07-19T22:52:21.621Z,19.20
2018-07-19T22:54:52.231Z,19.20
2018-07-19T22:57:22.599Z,19.05
2018-07-19T22:59:52.768Z,18.91
2018-07-19T23:02:22.690Z,18.83
2018-07-19T23:04:52.860Z,18.74
2018-07-19T23:07:22.927Z,18.80
2018-07-19T23:09:53.149Z,18.77
2018-07-19T23:12:25.884Z,18.49
2018-07-19T23:14:56.557Z,18.56
2018-07-19T23:17:26.944Z,18.69
2018-07-19T23:19:56.293Z,18.77
2018-07-19T23:22:27.253Z,18.37
2018-07-19T23:24:57.341Z,18.49
2018-07-19T23:27:27.217Z,18.47
2018-07-19T23:29:57.313Z,18.28
2018-07-19T23:32:27.264Z,18.23
2018-07-19T23:34:56.202Z,18.30
2018-07-19T23:37:31.712Z,18.58
2018-07-19T23:40:07.538Z,18.66
2018-07-19T23:42:40.093Z,18.59
2018-07-19T23:45:26.420Z,18.55
2018-07-19T23:47:55.768Z,18.42
2018-07-19T23:50:24.308Z,18.26
2018-07-19T23:52:52.855Z,18.25
2018-07-19T23:55:21.760Z,17.64
2018-07-19T23:57:50.296Z,17.70
